Aviation Digital Data Service (ADDS)

Output produced by METARs form (0910 UTC 29 March 2017)
found at http://aviationweather.gov/adds/metars/
 
KORD 290904Z 2909/3012 05006KT 3/4SM BR OVC002 
     TEMPO 2909/2913 1/2SM FG 
     FM291500 07013KT P6SM FEW005 BKN120 
     FM292100 07014G22KT P6SM SCT060 BKN100 
     FM300100 07010KT P6SM SCT030 OVC060 
     FM300900 08016G25KT 4SM -SHRA BKN030 OVC050